sensor_id;sensor_type;location;lat;lon;timestamp;P1;durP1;ratioP1;P2;durP2;ratioP2
54899;SDS011;40801;41.924;25.562;2023-04-15T00:00:02;5.85;;;5.22;;
54899;SDS011;40801;41.924;25.562;2023-04-15T00:02:29;5.22;;;4.80;;
54899;SDS011;40801;41.924;25.562;2023-04-15T00:04:54;7.28;;;5.45;;
54899;SDS011;40801;41.924;25.562;2023-04-15T00:07:19;5.80;;;4.60;;
54899;SDS011;40801;41.924;25.562;2023-04-15T00:09:45;6.70;;;5.30;;
54899;SDS011;40801;41.924;25.562;2023-04-15T00:12:10;7.20;;;5.97;;
54899;SDS011;40801;41.924;25.562;2023-04-15T00:14:36;8.20;;;6.05;;
54899;SDS011;40801;41.924;25.562;2023-04-15T00:17:03;7.28;;;5.30;;
54899;SDS011;40801;41.924;25.562;2023-04-15T00:19:28;7.60;;;5.35;;
54899;SDS011;40801;41.924;25.562;2023-04-15T00:21:54;7.00;;;4.70;;
54899;SDS011;40801;41.924;25.562;2023-04-15T00:24:20;6.32;;;4.70;;
54899;SDS011;40801;41.924;25.562;2023-04-15T00:26:46;6.50;;;4.20;;
54899;SDS011;40801;41.924;25.562;2023-04-15T00:29:11;5.38;;;4.78;;
54899;SDS011;40801;41.924;25.562;2023-04-15T00:31:37;8.40;;;5.38;;
54899;SDS011;40801;41.924;25.562;2023-04-15T00:34:02;9.48;;;6.20;;
54899;SDS011;40801;41.924;25.562;2023-04-15T00:36:28;7.00;;;5.65;;
54899;SDS011;40801;41.924;25.562;2023-04-15T00:38:54;6.43;;;5.78;;
54899;SDS011;40801;41.924;25.562;2023-04-15T00:41:19;7.40;;;5.22;;
54899;SDS011;40801;41.924;25.562;2023-04-15T00:43:45;7.07;;;5.00;;
54899;SDS011;40801;41.924;25.562;2023-04-15T00:46:12;7.43;;;5.32;;
54899;SDS011;40801;41.924;25.562;2023-04-15T00:48:39;6.80;;;5.00;;
54899;SDS011;40801;41.924;25.562;2023-04-15T00:51:06;7.28;;;5.32;;
54899;SDS011;40801;41.924;25.562;2023-04-15T00:53:32;12.10;;;9.45;;
54899;SDS011;40801;41.924;25.562;2023-04-15T00:55:57;10.05;;;7.55;;
54899;SDS011;40801;41.924;25.562;2023-04-15T00:58:23;6.75;;;5.30;;
54899;SDS011;40801;41.924;25.562;2023-04-15T01:00:49;7.00;;;5.25;;
54899;SDS011;40801;41.924;25.562;2023-04-15T01:03:18;7.25;;;5.95;;
54899;SDS011;40801;41.924;25.562;2023-04-15T01:05:44;10.40;;;6.60;;
54899;SDS011;40801;41.924;25.562;2023-04-15T01:08:10;8.02;;;7.18;;
54899;SDS011;40801;41.924;25.562;2023-04-15T01:10:36;9.77;;;8.70;;
54899;SDS011;40801;41.924;25.562;2023-04-15T01:13:02;12.77;;;8.32;;
54899;SDS011;40801;41.924;25.562;2023-04-15T01:15:28;11.93;;;6.78;;
54899;SDS011;40801;41.924;25.562;2023-04-15T01:17:53;9.50;;;5.63;;
54899;SDS011;40801;41.924;25.562;2023-04-15T01:20:19;27.15;;;15.32;;
54899;SDS011;40801;41.924;25.562;2023-04-15T01:22:46;12.65;;;9.90;;
54899;SDS011;40801;41.924;25.562;2023-04-15T01:25:15;11.85;;;6.53;;
54899;SDS011;40801;41.924;25.562;2023-04-15T01:27:43;7.20;;;6.40;;
54899;SDS011;40801;41.924;25.562;2023-04-15T01:30:09;8.07;;;5.65;;
54899;SDS011;40801;41.924;25.562;2023-04-15T01:32:35;6.38;;;5.55;;
54899;SDS011;40801;41.924;25.562;2023-04-15T01:35:01;6.45;;;5.38;;
54899;SDS011;40801;41.924;25.562;2023-04-15T01:37:27;7.40;;;5.70;;
54899;SDS011;40801;41.924;25.562;2023-04-15T01:39:53;6.00;;;5.43;;
54899;SDS011;40801;41.924;25.562;2023-04-15T01:42:20;7.13;;;5.35;;
54899;SDS011;40801;41.924;25.562;2023-04-15T01:44:45;8.10;;;5.32;;
54899;SDS011;40801;41.924;25.562;2023-04-15T01:47:11;7.45;;;5.55;;
54899;SDS011;40801;41.924;25.562;2023-04-15T01:49:37;6.40;;;4.78;;
54899;SDS011;40801;41.924;25.562;2023-04-15T01:52:02;9.55;;;5.97;;
54899;SDS011;40801;41.924;25.562;2023-04-15T01:54:27;9.00;;;7.45;;
54899;SDS011;40801;41.924;25.562;2023-04-15T01:56:53;6.78;;;6.20;;
54899;SDS011;40801;41.924;25.562;2023-04-15T01:59:18;7.78;;;7.03;;
54899;SDS011;40801;41.924;25.562;2023-04-15T02:01:44;7.30;;;6.47;;
54899;SDS011;40801;41.924;25.562;2023-04-15T02:04:10;8.02;;;6.65;;
54899;SDS011;40801;41.924;25.562;2023-04-15T02:06:44;7.45;;;6.55;;
54899;SDS011;40801;41.924;25.562;2023-04-15T02:09:10;10.15;;;7.15;;
54899;SDS011;40801;41.924;25.562;2023-04-15T02:11:36;9.10;;;7.50;;
54899;SDS011;40801;41.924;25.562;2023-04-15T02:14:01;8.32;;;7.53;;
54899;SDS011;40801;41.924;25.562;2023-04-15T02:16:28;10.10;;;7.75;;
54899;SDS011;40801;41.924;25.562;2023-04-15T02:18:54;11.05;;;9.07;;
54899;SDS011;40801;41.924;25.562;2023-04-15T02:21:19;11.25;;;8.68;;
54899;SDS011;40801;41.924;25.562;2023-04-15T02:23:45;9.50;;;8.50;;
54899;SDS011;40801;41.924;25.562;2023-04-15T02:26:12;11.85;;;7.90;;
54899;SDS011;40801;41.924;25.562;2023-04-15T02:28:38;9.90;;;7.95;;
54899;SDS011;40801;41.924;25.562;2023-04-15T02:31:04;11.57;;;8.88;;
54899;SDS011;40801;41.924;25.562;2023-04-15T02:33:30;10.80;;;7.82;;
54899;SDS011;40801;41.924;25.562;2023-04-15T02:35:56;8.70;;;7.80;;
54899;SDS011;40801;41.924;25.562;2023-04-15T02:38:21;10.23;;;8.43;;
54899;SDS011;40801;41.924;25.562;2023-04-15T02:40:47;11.20;;;7.78;;
54899;SDS011;40801;41.924;25.562;2023-04-15T02:43:14;10.63;;;8.57;;
54899;SDS011;40801;41.924;25.562;2023-04-15T02:45:41;10.55;;;8.05;;
54899;SDS011;40801;41.924;25.562;2023-04-15T02:48:07;12.10;;;8.88;;
54899;SDS011;40801;41.924;25.562;2023-04-15T02:50:33;9.10;;;7.07;;
54899;SDS011;40801;41.924;25.562;2023-04-15T02:52:58;8.90;;;7.55;;
54899;SDS011;40801;41.924;25.562;2023-04-15T02:55:25;7.22;;;6.53;;
54899;SDS011;40801;41.924;25.562;2023-04-15T02:57:51;10.20;;;8.63;;
54899;SDS011;40801;41.924;25.562;2023-04-15T03:00:16;10.77;;;8.00;;
54899;SDS011;40801;41.924;25.562;2023-04-15T03:02:42;9.70;;;8.23;;
54899;SDS011;40801;41.924;25.562;2023-04-15T03:05:11;8.82;;;7.32;;
54899;SDS011;40801;41.924;25.562;2023-04-15T03:07:37;12.07;;;8.10;;
54899;SDS011;40801;41.924;25.562;2023-04-15T03:10:04;8.27;;;7.25;;
54899;SDS011;40801;41.924;25.562;2023-04-15T03:12:30;10.13;;;7.47;;
54899;SDS011;40801;41.924;25.562;2023-04-15T03:14:56;8.25;;;7.13;;
54899;SDS011;40801;41.924;25.562;2023-04-15T03:17:21;10.85;;;7.03;;
54899;SDS011;40801;41.924;25.562;2023-04-15T03:19:47;9.70;;;6.82;;
54899;SDS011;40801;41.924;25.562;2023-04-15T03:22:12;9.43;;;6.75;;
54899;SDS011;40801;41.924;25.562;2023-04-15T03:24:37;11.65;;;6.93;;
54899;SDS011;40801;41.924;25.562;2023-04-15T03:27:03;8.23;;;7.35;;
54899;SDS011;40801;41.924;25.562;2023-04-15T03:29:30;8.82;;;7.35;;
54899;SDS011;40801;41.924;25.562;2023-04-15T03:31:55;9.27;;;8.15;;
54899;SDS011;40801;41.924;25.562;2023-04-15T03:34:21;8.52;;;7.70;;
54899;SDS011;40801;41.924;25.562;2023-04-15T03:36:46;29.00;;;25.98;;
54899;SDS011;40801;41.924;25.562;2023-04-15T03:39:12;15.13;;;13.68;;
54899;SDS011;40801;41.924;25.562;2023-04-15T03:41:37;11.45;;;10.35;;
54899;SDS011;40801;41.924;25.562;2023-04-15T03:44:03;11.15;;;9.38;;
54899;SDS011;40801;41.924;25.562;2023-04-15T03:46:28;8.57;;;6.88;;
54899;SDS011;40801;41.924;25.562;2023-04-15T03:48:54;11.43;;;7.93;;
54899;SDS011;40801;41.924;25.562;2023-04-15T03:51:19;9.20;;;8.02;;
54899;SDS011;40801;41.924;25.562;2023-04-15T03:53:44;18.08;;;13.02;;
54899;SDS011;40801;41.924;25.562;2023-04-15T03:56:10;12.07;;;9.60;;
54899;SDS011;40801;41.924;25.562;2023-04-15T03:58:35;9.63;;;8.55;;
54899;SDS011;40801;41.924;25.562;2023-04-15T04:01:01;10.63;;;8.32;;
54899;SDS011;40801;41.924;25.562;2023-04-15T04:03:26;8.32;;;7.57;;
54899;SDS011;40801;41.924;25.562;2023-04-15T04:05:52;9.73;;;8.70;;
54899;SDS011;40801;41.924;25.562;2023-04-15T04:08:17;14.05;;;12.80;;
54899;SDS011;40801;41.924;25.562;2023-04-15T04:10:43;8.68;;;7.60;;
54899;SDS011;40801;41.924;25.562;2023-04-15T04:13:09;13.18;;;9.77;;
54899;SDS011;40801;41.924;25.562;2023-04-15T04:15:34;12.20;;;9.35;;
54899;SDS011;40801;41.924;25.562;2023-04-15T04:18:00;11.60;;;9.25;;
54899;SDS011;40801;41.924;25.562;2023-04-15T04:20:25;13.70;;;9.32;;
54899;SDS011;40801;41.924;25.562;2023-04-15T04:22:51;8.57;;;7.35;;
54899;SDS011;40801;41.924;25.562;2023-04-15T04:25:16;9.38;;;7.97;;
54899;SDS011;40801;41.924;25.562;2023-04-15T04:27:41;7.45;;;6.75;;
54899;SDS011;40801;41.924;25.562;2023-04-15T04:30:07;9.43;;;5.90;;
54899;SDS011;40801;41.924;25.562;2023-04-15T04:32:33;6.18;;;5.03;;
54899;SDS011;40801;41.924;25.562;2023-04-15T04:34:58;5.95;;;4.90;;
54899;SDS011;40801;41.924;25.562;2023-04-15T04:37:23;7.97;;;5.90;;
54899;SDS011;40801;41.924;25.562;2023-04-15T04:39:49;6.72;;;6.03;;
54899;SDS011;40801;41.924;25.562;2023-04-15T04:42:15;8.38;;;5.97;;
54899;SDS011;40801;41.924;25.562;2023-04-15T04:44:40;6.35;;;5.75;;
54899;SDS011;40801;41.924;25.562;2023-04-15T04:47:06;7.53;;;6.47;;
54899;SDS011;40801;41.924;25.562;2023-04-15T04:49:31;6.40;;;5.80;;
54899;SDS011;40801;41.924;25.562;2023-04-15T04:51:57;21.92;;;19.67;;
54899;SDS011;40801;41.924;25.562;2023-04-15T04:54:23;9.57;;;7.53;;
54899;SDS011;40801;41.924;25.562;2023-04-15T04:56:48;7.97;;;7.28;;
54899;SDS011;40801;41.924;25.562;2023-04-15T04:59:14;9.52;;;7.88;;
54899;SDS011;40801;41.924;25.562;2023-04-15T05:01:39;14.10;;;11.05;;
54899;SDS011;40801;41.924;25.562;2023-04-15T05:04:05;10.27;;;7.95;;
54899;SDS011;40801;41.924;25.562;2023-04-15T05:06:31;14.40;;;11.23;;
54899;SDS011;40801;41.924;25.562;2023-04-15T05:08:57;14.68;;;8.57;;
54899;SDS011;40801;41.924;25.562;2023-04-15T05:11:22;7.68;;;6.53;;
54899;SDS011;40801;41.924;25.562;2023-04-15T05:13:48;7.50;;;6.40;;
54899;SDS011;40801;41.924;25.562;2023-04-15T05:16:13;10.45;;;9.00;;
54899;SDS011;40801;41.924;25.562;2023-04-15T05:18:39;7.97;;;7.18;;
54899;SDS011;40801;41.924;25.562;2023-04-15T05:21:05;7.85;;;6.82;;
54899;SDS011;40801;41.924;25.562;2023-04-15T05:23:30;7.97;;;7.18;;
54899;SDS011;40801;41.924;25.562;2023-04-15T05:25:56;8.63;;;7.70;;
54899;SDS011;40801;41.924;25.562;2023-04-15T05:28:21;7.15;;;6.53;;
54899;SDS011;40801;41.924;25.562;2023-04-15T05:30:47;6.80;;;6.28;;
54899;SDS011;40801;41.924;25.562;2023-04-15T05:33:12;7.15;;;6.45;;
54899;SDS011;40801;41.924;25.562;2023-04-15T05:35:38;6.35;;;5.68;;
54899;SDS011;40801;41.924;25.562;2023-04-15T05:38:03;5.22;;;4.82;;
54899;SDS011;40801;41.924;25.562;2023-04-15T05:40:29;6.95;;;5.88;;
54899;SDS011;40801;41.924;25.562;2023-04-15T05:42:55;7.63;;;6.38;;
54899;SDS011;40801;41.924;25.562;2023-04-15T05:45:20;10.70;;;8.60;;
54899;SDS011;40801;41.924;25.562;2023-04-15T05:47:46;6.90;;;5.47;;
54899;SDS011;40801;41.924;25.562;2023-04-15T05:50:11;5.68;;;5.05;;
54899;SDS011;40801;41.924;25.562;2023-04-15T05:52:37;4.40;;;4.10;;
54899;SDS011;40801;41.924;25.562;2023-04-15T05:55:02;5.90;;;4.93;;
54899;SDS011;40801;41.924;25.562;2023-04-15T05:57:28;5.15;;;4.65;;
54899;SDS011;40801;41.924;25.562;2023-04-15T05:59:53;6.18;;;4.30;;
54899;SDS011;40801;41.924;25.562;2023-04-15T06:02:21;6.00;;;5.47;;
54899;SDS011;40801;41.924;25.562;2023-04-15T06:04:46;6.18;;;3.30;;
54899;SDS011;40801;41.924;25.562;2023-04-15T06:07:12;6.10;;;4.40;;
54899;SDS011;40801;41.924;25.562;2023-04-15T06:09:37;6.70;;;6.00;;
54899;SDS011;40801;41.924;25.562;2023-04-15T06:12:03;7.40;;;4.57;;
54899;SDS011;40801;41.924;25.562;2023-04-15T06:14:30;5.88;;;4.75;;
54899;SDS011;40801;41.924;25.562;2023-04-15T06:16:55;4.60;;;4.30;;
54899;SDS011;40801;41.924;25.562;2023-04-15T06:19:21;5.60;;;4.15;;
54899;SDS011;40801;41.924;25.562;2023-04-15T06:21:46;5.13;;;4.63;;
54899;SDS011;40801;41.924;25.562;2023-04-15T06:24:12;5.93;;;5.13;;
54899;SDS011;40801;41.924;25.562;2023-04-15T06:26:37;4.65;;;4.25;;
54899;SDS011;40801;41.924;25.562;2023-04-15T06:29:03;7.28;;;6.53;;
54899;SDS011;40801;41.924;25.562;2023-04-15T06:31:28;7.15;;;4.57;;
54899;SDS011;40801;41.924;25.562;2023-04-15T06:33:54;8.48;;;7.60;;
54899;SDS011;40801;41.924;25.562;2023-04-15T06:36:20;5.72;;;4.15;;
54899;SDS011;40801;41.924;25.562;2023-04-15T06:38:45;6.05;;;3.50;;
54899;SDS011;40801;41.924;25.562;2023-04-15T06:41:11;3.92;;;3.55;;
54899;SDS011;40801;41.924;25.562;2023-04-15T06:43:37;5.50;;;4.88;;
54899;SDS011;40801;41.924;25.562;2023-04-15T06:46:03;3.92;;;3.58;;
54899;SDS011;40801;41.924;25.562;2023-04-15T06:48:28;4.63;;;3.38;;
54899;SDS011;40801;41.924;25.562;2023-04-15T06:50:53;5.47;;;3.30;;
54899;SDS011;40801;41.924;25.562;2023-04-15T06:53:19;2.90;;;2.70;;
54899;SDS011;40801;41.924;25.562;2023-04-15T06:55:45;2.90;;;2.70;;
54899;SDS011;40801;41.924;25.562;2023-04-15T06:58:10;4.80;;;3.15;;
54899;SDS011;40801;41.924;25.562;2023-04-15T07:00:36;2.90;;;2.70;;
54899;SDS011;40801;41.924;25.562;2023-04-15T07:03:03;4.47;;;3.33;;
54899;SDS011;40801;41.924;25.562;2023-04-15T07:05:29;3.95;;;2.88;;
54899;SDS011;40801;41.924;25.562;2023-04-15T07:07:55;4.45;;;2.78;;
54899;SDS011;40801;41.924;25.562;2023-04-15T07:10:21;3.60;;;3.00;;
54899;SDS011;40801;41.924;25.562;2023-04-15T07:12:49;4.78;;;3.40;;
54899;SDS011;40801;41.924;25.562;2023-04-15T07:15:15;4.10;;;2.80;;
54899;SDS011;40801;41.924;25.562;2023-04-15T07:17:40;3.45;;;3.15;;
54899;SDS011;40801;41.924;25.562;2023-04-15T07:20:07;3.83;;;3.03;;
54899;SDS011;40801;41.924;25.562;2023-04-15T07:22:33;3.30;;;3.00;;
54899;SDS011;40801;41.924;25.562;2023-04-15T07:24:58;4.93;;;2.70;;
54899;SDS011;40801;41.924;25.562;2023-04-15T07:27:24;2.70;;;2.35;;
54899;SDS011;40801;41.924;25.562;2023-04-15T07:29:50;4.88;;;2.70;;
54899;SDS011;40801;41.924;25.562;2023-04-15T07:32:16;3.67;;;3.05;;
54899;SDS011;40801;41.924;25.562;2023-04-15T07:34:41;2.45;;;2.25;;
54899;SDS011;40801;41.924;25.562;2023-04-15T07:37:07;2.95;;;2.38;;
54899;SDS011;40801;41.924;25.562;2023-04-15T07:39:33;5.00;;;2.90;;
54899;SDS011;40801;41.924;25.562;2023-04-15T07:41:58;3.00;;;2.08;;
54899;SDS011;40801;41.924;25.562;2023-04-15T07:44:24;2.92;;;2.15;;
54899;SDS011;40801;41.924;25.562;2023-04-15T07:46:51;2.70;;;2.50;;
54899;SDS011;40801;41.924;25.562;2023-04-15T07:49:16;2.22;;;2.03;;
54899;SDS011;40801;41.924;25.562;2023-04-15T07:51:43;7.85;;;3.28;;
54899;SDS011;40801;41.924;25.562;2023-04-15T07:54:09;2.15;;;1.95;;
54899;SDS011;40801;41.924;25.562;2023-04-15T07:56:34;5.07;;;2.60;;
54899;SDS011;40801;41.924;25.562;2023-04-15T07:58:59;4.55;;;2.38;;
54899;SDS011;40801;41.924;25.562;2023-04-15T08:01:26;3.08;;;2.30;;
54899;SDS011;40801;41.924;25.562;2023-04-15T08:03:51;4.22;;;2.58;;
54899;SDS011;40801;41.924;25.562;2023-04-15T08:06:17;2.15;;;1.83;;
54899;SDS011;40801;41.924;25.562;2023-04-15T08:08:42;6.05;;;2.25;;
54899;SDS011;40801;41.924;25.562;2023-04-15T08:11:08;4.18;;;2.30;;
54899;SDS011;40801;41.924;25.562;2023-04-15T08:13:33;5.30;;;3.35;;
54899;SDS011;40801;41.924;25.562;2023-04-15T08:18:54;13.93;;;12.02;;
54899;SDS011;40801;41.924;25.562;2023-04-15T08:21:20;5.38;;;2.50;;
54899;SDS011;40801;41.924;25.562;2023-04-15T08:23:47;2.40;;;1.95;;
54899;SDS011;40801;41.924;25.562;2023-04-15T08:26:16;2.78;;;2.03;;
54899;SDS011;40801;41.924;25.562;2023-04-15T08:28:43;2.50;;;2.40;;
54899;SDS011;40801;41.924;25.562;2023-04-15T08:31:10;3.95;;;2.35;;
54899;SDS011;40801;41.924;25.562;2023-04-15T08:33:36;4.75;;;2.55;;
54899;SDS011;40801;41.924;25.562;2023-04-15T08:36:02;2.63;;;1.83;;
54899;SDS011;40801;41.924;25.562;2023-04-15T08:38:27;3.00;;;2.65;;
54899;SDS011;40801;41.924;25.562;2023-04-15T08:40:52;2.80;;;2.28;;
54899;SDS011;40801;41.924;25.562;2023-04-15T08:43:21;3.17;;;2.42;;
54899;SDS011;40801;41.924;25.562;2023-04-15T08:45:50;3.10;;;2.90;;
54899;SDS011;40801;41.924;25.562;2023-04-15T08:48:16;3.67;;;3.38;;
54899;SDS011;40801;41.924;25.562;2023-04-15T08:50:43;3.53;;;2.17;;
54899;SDS011;40801;41.924;25.562;2023-04-15T08:53:10;7.75;;;4.63;;
54899;SDS011;40801;41.924;25.562;2023-04-15T08:55:36;3.95;;;1.92;;
54899;SDS011;40801;41.924;25.562;2023-04-15T08:58:09;5.03;;;2.20;;
54899;SDS011;40801;41.924;25.562;2023-04-15T09:00:36;5.63;;;3.28;;
54899;SDS011;40801;41.924;25.562;2023-04-15T09:03:03;3.55;;;2.65;;
54899;SDS011;40801;41.924;25.562;2023-04-15T09:05:37;3.70;;;2.28;;
54899;SDS011;40801;41.924;25.562;2023-04-15T09:08:03;2.47;;;2.17;;
54899;SDS011;40801;41.924;25.562;2023-04-15T09:10:29;4.88;;;2.90;;
54899;SDS011;40801;41.924;25.562;2023-04-15T09:12:55;3.15;;;2.13;;
54899;SDS011;40801;41.924;25.562;2023-04-15T09:15:22;3.97;;;2.17;;
54899;SDS011;40801;41.924;25.562;2023-04-15T09:17:49;2.72;;;2.00;;
54899;SDS011;40801;41.924;25.562;2023-04-15T09:20:15;3.25;;;2.70;;
54899;SDS011;40801;41.924;25.562;2023-04-15T09:22:44;15.20;;;13.82;;
54899;SDS011;40801;41.924;25.562;2023-04-15T09:30:22;4.10;;;2.33;;
54899;SDS011;40801;41.924;25.562;2023-04-15T09:32:57;2.83;;;2.63;;
54899;SDS011;40801;41.924;25.562;2023-04-15T09:35:25;1.67;;;1.50;;
54899;SDS011;40801;41.924;25.562;2023-04-15T09:37:52;3.10;;;1.88;;
54899;SDS011;40801;41.924;25.562;2023-04-15T09:40:38;2.78;;;2.22;;
54899;SDS011;40801;41.924;25.562;2023-04-15T09:43:06;3.90;;;2.08;;
54899;SDS011;40801;41.924;25.562;2023-04-15T09:45:34;3.58;;;2.45;;
54899;SDS011;40801;41.924;25.562;2023-04-15T09:48:19;3.33;;;1.92;;
54899;SDS011;40801;41.924;25.562;2023-04-15T09:50:49;3.13;;;2.03;;
54899;SDS011;40801;41.924;25.562;2023-04-15T09:53:18;4.20;;;3.53;;
54899;SDS011;40801;41.924;25.562;2023-04-15T09:55:45;2.65;;;2.33;;
54899;SDS011;40801;41.924;25.562;2023-04-15T09:58:22;4.43;;;3.33;;
54899;SDS011;40801;41.924;25.562;2023-04-15T10:00:52;3.80;;;1.92;;
54899;SDS011;40801;41.924;25.562;2023-04-15T10:03:20;5.82;;;3.20;;
54899;SDS011;40801;41.924;25.562;2023-04-15T10:05:47;6.70;;;3.65;;
54899;SDS011;40801;41.924;25.562;2023-04-15T10:08:18;2.10;;;1.90;;
54899;SDS011;40801;41.924;25.562;2023-04-15T10:10:46;2.80;;;2.60;;
54899;SDS011;40801;41.924;25.562;2023-04-15T10:13:19;4.60;;;2.80;;
54899;SDS011;40801;41.924;25.562;2023-04-15T10:15:56;9.68;;;4.47;;
54899;SDS011;40801;41.924;25.562;2023-04-15T10:18:24;4.25;;;1.80;;
54899;SDS011;40801;41.924;25.562;2023-04-15T10:20:51;3.53;;;2.22;;
54899;SDS011;40801;41.924;25.562;2023-04-15T10:23:17;3.28;;;2.03;;
54899;SDS011;40801;41.924;25.562;2023-04-15T10:25:45;4.60;;;2.70;;
54899;SDS011;40801;41.924;25.562;2023-04-15T10:28:10;6.03;;;2.80;;
54899;SDS011;40801;41.924;25.562;2023-04-15T10:30:36;4.65;;;2.72;;
54899;SDS011;40801;41.924;25.562;2023-04-15T10:33:02;3.90;;;2.00;;
54899;SDS011;40801;41.924;25.562;2023-04-15T10:35:30;2.63;;;2.42;;
54899;SDS011;40801;41.924;25.562;2023-04-15T10:42:50;4.03;;;2.03;;
54899;SDS011;40801;41.924;25.562;2023-04-15T10:45:15;10.13;;;5.05;;
54899;SDS011;40801;41.924;25.562;2023-04-15T10:47:42;3.90;;;2.10;;
54899;SDS011;40801;41.924;25.562;2023-04-15T10:50:08;3.00;;;2.05;;
54899;SDS011;40801;41.924;25.562;2023-04-15T10:52:33;3.20;;;2.10;;
54899;SDS011;40801;41.924;25.562;2023-04-15T10:55:02;4.93;;;2.10;;
54899;SDS011;40801;41.924;25.562;2023-04-15T10:57:37;2.85;;;2.05;;
54899;SDS011;40801;41.924;25.562;2023-04-15T11:02:37;3.38;;;2.08;;
54899;SDS011;40801;41.924;25.562;2023-04-15T11:05:02;4.43;;;2.40;;
54899;SDS011;40801;41.924;25.562;2023-04-15T11:12:42;3.47;;;2.28;;
54899;SDS011;40801;41.924;25.562;2023-04-15T11:17:55;3.72;;;2.17;;
54899;SDS011;40801;41.924;25.562;2023-04-15T11:20:21;3.63;;;2.50;;
54899;SDS011;40801;41.924;25.562;2023-04-15T11:22:47;3.67;;;2.20;;
54899;SDS011;40801;41.924;25.562;2023-04-15T11:25:24;3.38;;;2.38;;
54899;SDS011;40801;41.924;25.562;2023-04-15T11:27:51;4.82;;;2.47;;
54899;SDS011;40801;41.924;25.562;2023-04-15T11:30:18;4.55;;;3.13;;
54899;SDS011;40801;41.924;25.562;2023-04-15T11:32:46;4.67;;;2.50;;
54899;SDS011;40801;41.924;25.562;2023-04-15T11:35:11;5.10;;;2.28;;
54899;SDS011;40801;41.924;25.562;2023-04-15T11:37:37;3.95;;;2.55;;
54899;SDS011;40801;41.924;25.562;2023-04-15T11:40:03;5.05;;;2.30;;
54899;SDS011;40801;41.924;25.562;2023-04-15T11:42:28;3.15;;;2.17;;
54899;SDS011;40801;41.924;25.562;2023-04-15T11:45:15;4.88;;;2.00;;
54899;SDS011;40801;41.924;25.562;2023-04-15T11:47:40;3.75;;;2.10;;
54899;SDS011;40801;41.924;25.562;2023-04-15T11:50:22;2.63;;;2.22;;
54899;SDS011;40801;41.924;25.562;2023-04-15T11:52:54;5.22;;;2.22;;
54899;SDS011;40801;41.924;25.562;2023-04-15T11:55:21;2.53;;;1.70;;
54899;SDS011;40801;41.924;25.562;2023-04-15T11:58:04;3.92;;;1.85;;
54899;SDS011;40801;41.924;25.562;2023-04-15T12:00:38;4.22;;;1.85;;
54899;SDS011;40801;41.924;25.562;2023-04-15T12:03:15;2.53;;;1.73;;
54899;SDS011;40801;41.924;25.562;2023-04-15T12:06:01;2.70;;;1.95;;
54899;SDS011;40801;41.924;25.562;2023-04-15T12:11:36;3.90;;;1.98;;
54899;SDS011;40801;41.924;25.562;2023-04-15T12:16:47;1.25;;;1.15;;
54899;SDS011;40801;41.924;25.562;2023-04-15T12:19:15;2.17;;;1.25;;
54899;SDS011;40801;41.924;25.562;2023-04-15T12:21:46;2.45;;;1.20;;
54899;SDS011;40801;41.924;25.562;2023-04-15T12:24:12;3.08;;;1.98;;
54899;SDS011;40801;41.924;25.562;2023-04-15T12:29:13;2.35;;;1.70;;
54899;SDS011;40801;41.924;25.562;2023-04-15T12:31:47;1.60;;;1.50;;
54899;SDS011;40801;41.924;25.562;2023-04-15T12:34:15;2.95;;;1.30;;
54899;SDS011;40801;41.924;25.562;2023-04-15T12:36:42;1.42;;;1.33;;
54899;SDS011;40801;41.924;25.562;2023-04-15T12:39:07;3.78;;;1.85;;
54899;SDS011;40801;41.924;25.562;2023-04-15T12:41:33;1.50;;;1.40;;
54899;SDS011;40801;41.924;25.562;2023-04-15T12:43:59;1.60;;;1.50;;
54899;SDS011;40801;41.924;25.562;2023-04-15T12:46:25;3.25;;;1.90;;
54899;SDS011;40801;41.924;25.562;2023-04-15T12:48:51;4.25;;;1.80;;
54899;SDS011;40801;41.924;25.562;2023-04-15T12:51:17;2.05;;;1.52;;
54899;SDS011;40801;41.924;25.562;2023-04-15T12:53:43;1.60;;;1.50;;
54899;SDS011;40801;41.924;25.562;2023-04-15T12:56:08;3.15;;;2.05;;
54899;SDS011;40801;41.924;25.562;2023-04-15T12:58:34;3.20;;;1.92;;
54899;SDS011;40801;41.924;25.562;2023-04-15T13:01:00;3.85;;;2.15;;
54899;SDS011;40801;41.924;25.562;2023-04-15T13:03:25;5.32;;;2.05;;
54899;SDS011;40801;41.924;25.562;2023-04-15T13:05:51;5.32;;;2.70;;
54899;SDS011;40801;41.924;25.562;2023-04-15T13:08:17;3.30;;;1.90;;
54899;SDS011;40801;41.924;25.562;2023-04-15T13:10:42;3.05;;;2.40;;
54899;SDS011;40801;41.924;25.562;2023-04-15T13:13:07;3.35;;;2.38;;
54899;SDS011;40801;41.924;25.562;2023-04-15T13:15:33;6.30;;;2.90;;
54899;SDS011;40801;41.924;25.562;2023-04-15T13:17:59;3.60;;;2.60;;
54899;SDS011;40801;41.924;25.562;2023-04-15T13:20:25;2.55;;;1.77;;
54899;SDS011;40801;41.924;25.562;2023-04-15T13:22:53;4.93;;;2.20;;
54899;SDS011;40801;41.924;25.562;2023-04-15T13:25:19;4.00;;;2.08;;
54899;SDS011;40801;41.924;25.562;2023-04-15T13:27:44;5.60;;;3.17;;
54899;SDS011;40801;41.924;25.562;2023-04-15T13:30:10;3.65;;;2.20;;
54899;SDS011;40801;41.924;25.562;2023-04-15T13:32:36;5.35;;;2.50;;
54899;SDS011;40801;41.924;25.562;2023-04-15T13:35:01;4.20;;;2.42;;
54899;SDS011;40801;41.924;25.562;2023-04-15T13:37:28;3.38;;;2.38;;
54899;SDS011;40801;41.924;25.562;2023-04-15T13:39:54;3.72;;;2.30;;
54899;SDS011;40801;41.924;25.562;2023-04-15T13:42:23;2.45;;;2.03;;
54899;SDS011;40801;41.924;25.562;2023-04-15T13:44:49;2.75;;;2.22;;
54899;SDS011;40801;41.924;25.562;2023-04-15T13:49:43;5.32;;;2.05;;
54899;SDS011;40801;41.924;25.562;2023-04-15T13:52:09;2.72;;;1.70;;
54899;SDS011;40801;41.924;25.562;2023-04-15T13:54:35;3.70;;;1.90;;
54899;SDS011;40801;41.924;25.562;2023-04-15T13:57:01;4.53;;;2.70;;
54899;SDS011;40801;41.924;25.562;2023-04-15T13:59:26;2.85;;;2.08;;
54899;SDS011;40801;41.924;25.562;2023-04-15T14:01:52;2.75;;;2.10;;
54899;SDS011;40801;41.924;25.562;2023-04-15T14:04:17;3.40;;;2.47;;
54899;SDS011;40801;41.924;25.562;2023-04-15T14:06:43;3.92;;;2.25;;
54899;SDS011;40801;41.924;25.562;2023-04-15T14:09:08;2.45;;;1.90;;
54899;SDS011;40801;41.924;25.562;2023-04-15T14:11:34;4.25;;;3.70;;
54899;SDS011;40801;41.924;25.562;2023-04-15T14:14:00;3.70;;;2.20;;
54899;SDS011;40801;41.924;25.562;2023-04-15T14:16:26;3.47;;;1.98;;
54899;SDS011;40801;41.924;25.562;2023-04-15T14:18:52;11.13;;;5.85;;
54899;SDS011;40801;41.924;25.562;2023-04-15T14:21:17;7.90;;;4.78;;
54899;SDS011;40801;41.924;25.562;2023-04-15T14:23:43;4.97;;;3.40;;
54899;SDS011;40801;41.924;25.562;2023-04-15T14:26:08;6.60;;;4.53;;
54899;SDS011;40801;41.924;25.562;2023-04-15T14:28:33;7.32;;;5.05;;
54899;SDS011;40801;41.924;25.562;2023-04-15T14:31:00;8.77;;;5.32;;
54899;SDS011;40801;41.924;25.562;2023-04-15T14:33:25;6.93;;;5.28;;
54899;SDS011;40801;41.924;25.562;2023-04-15T14:35:51;4.30;;;2.50;;
54899;SDS011;40801;41.924;25.562;2023-04-15T14:38:16;3.88;;;3.58;;
54899;SDS011;40801;41.924;25.562;2023-04-15T14:40:42;5.57;;;2.47;;
54899;SDS011;40801;41.924;25.562;2023-04-15T14:43:07;5.95;;;3.72;;
54899;SDS011;40801;41.924;25.562;2023-04-15T14:45:32;6.53;;;5.43;;
54899;SDS011;40801;41.924;25.562;2023-04-15T14:47:59;2.90;;;2.47;;
54899;SDS011;40801;41.924;25.562;2023-04-15T14:50:24;2.45;;;2.22;;
54899;SDS011;40801;41.924;25.562;2023-04-15T14:52:49;4.80;;;3.15;;
54899;SDS011;40801;41.924;25.562;2023-04-15T14:55:15;4.68;;;2.70;;
54899;SDS011;40801;41.924;25.562;2023-04-15T14:57:41;2.88;;;2.10;;
54899;SDS011;40801;41.924;25.562;2023-04-15T15:00:07;3.30;;;2.58;;
54899;SDS011;40801;41.924;25.562;2023-04-15T15:02:35;3.00;;;2.47;;